createdAt,value
2022-12-14T00:01:29.175Z,19.37
2022-12-14T00:03:56.401Z,21.77
2022-12-14T00:06:28.619Z,23.67
2022-12-14T00:08:58.185Z,19.87
2022-12-14T00:11:25.289Z,22.73
2022-12-14T00:13:57.140Z,20.87
2022-12-14T00:16:25.207Z,18.30
2022-12-14T00:18:54.124Z,19.97
2022-12-14T00:21:21.244Z,22.90
2022-12-14T00:23:50.171Z,16.10
2022-12-14T00:26:19.275Z,20.20
2022-12-14T00:28:46.889Z,20.97
2022-12-14T00:31:13.532Z,17.17
2022-12-14T00:33:40.396Z,22.53
2022-12-14T00:36:09.235Z,19.80
2022-12-14T00:38:36.261Z,17.33
2022-12-14T00:41:03.127Z,21.03
2022-12-14T00:43:29.838Z,19.23
2022-12-14T00:45:56.553Z,21.20
2022-12-14T00:48:25.150Z,21.17
2022-12-14T00:50:53.327Z,20.10
2022-12-14T00:53:21.031Z,21.43
2022-12-14T00:55:49.522Z,17.90
2022-12-14T00:58:19.451Z,16.10
2022-12-14T01:00:47.281Z,17.63
2022-12-14T01:03:14.486Z,21.60
2022-12-14T01:05:41.438Z,16.30
2022-12-14T01:08:08.131Z,17.90
2022-12-14T01:10:39.956Z,20.23
2022-12-14T01:13:06.672Z,19.23
2022-12-14T01:15:35.285Z,19.27
2022-12-14T01:18:01.759Z,17.97
2022-12-14T01:20:28.174Z,15.97
2022-12-14T01:22:56.240Z,19.07
2022-12-14T01:25:22.971Z,20.37
2022-12-14T01:27:49.400Z,20.97
2022-12-14T01:30:16.796Z,19.67
2022-12-14T01:32:43.272Z,16.87
2022-12-14T01:35:09.654Z,16.30
2022-12-14T01:37:36.097Z,12.57
2022-12-14T01:40:03.248Z,13.67
2022-12-14T01:42:29.722Z,16.10
2022-12-14T01:44:58.303Z,13.43
2022-12-14T01:47:30.476Z,15.97
2022-12-14T01:50:05.860Z,15.87
2022-12-14T01:52:40.936Z,17.00
2022-12-14T01:55:30.453Z,15.47
2022-12-14T01:58:22.484Z,17.00
2022-12-14T02:00:52.908Z,20.20
2022-12-14T02:03:32.747Z,16.50
2022-12-14T02:06:10.471Z,18.47
2022-12-14T02:08:39.251Z,18.87
2022-12-14T02:11:05.853Z,17.13
2022-12-14T02:13:35.407Z,17.27
2022-12-14T02:16:02.043Z,12.33
2022-12-14T02:18:31.362Z,18.23
2022-12-14T02:21:43.048Z,17.83
2022-12-14T02:24:26.075Z,14.27
2022-12-14T02:27:04.747Z,18.80
2022-12-14T02:29:43.301Z,15.53
2022-12-14T02:32:28.501Z,14.67
2022-12-14T02:35:04.141Z,18.10
2022-12-14T02:37:49.541Z,12.50
2022-12-14T02:40:38.280Z,14.13
2022-12-14T02:43:08.610Z,16.93
2022-12-14T02:45:55.661Z,14.43
2022-12-14T02:48:26.309Z,17.57
2022-12-14T02:51:10.487Z,17.10
2022-12-14T02:53:39.847Z,17.73
2022-12-14T02:56:16.945Z,15.27
2022-12-14T02:58:48.859Z,16.77
2022-12-14T03:01:19.450Z,18.47
2022-12-14T03:03:46.351Z,17.63
2022-12-14T03:06:26.217Z,15.97
2022-12-14T03:08:58.142Z,15.70
2022-12-14T03:11:41.483Z,15.73
2022-12-14T03:14:18.470Z,16.23
2022-12-14T03:16:50.013Z,17.20
2022-12-14T03:19:23.005Z,20.23
2022-12-14T03:21:56.162Z,17.53
2022-12-14T03:24:32.439Z,11.83
2022-12-14T03:27:07.589Z,11.90
2022-12-14T03:29:55.339Z,18.17
2022-12-14T03:32:28.509Z,16.43
2022-12-14T03:35:07.545Z,17.40
2022-12-14T03:37:43.496Z,15.20
2022-12-14T03:40:13.112Z,14.83
2022-12-14T03:42:49.549Z,16.60
2022-12-14T03:45:26.683Z,16.57
2022-12-14T03:48:19.619Z,16.20
2022-12-14T03:51:04.216Z,15.77
2022-12-14T03:53:53.604Z,15.27
2022-12-14T03:56:28.911Z,17.93
2022-12-14T03:59:09.066Z,18.17
2022-12-14T04:01:43.520Z,15.47
2022-12-14T04:04:18.908Z,16.00
2022-12-14T04:07:10.052Z,12.50
2022-12-14T04:10:01.826Z,14.43
2022-12-14T04:12:54.626Z,13.57
2022-12-14T04:15:45.502Z,15.07
2022-12-14T04:18:37.424Z,14.77
2022-12-14T04:21:12.668Z,12.87
2022-12-14T04:24:04.336Z,14.17
2022-12-14T04:26:38.286Z,15.83
2022-12-14T04:29:28.283Z,15.27
2022-12-14T04:32:17.053Z,14.57
2022-12-14T04:34:48.304Z,13.37
2022-12-14T04:37:19.207Z,14.30
2022-12-14T04:39:52.321Z,15.63
2022-12-14T04:42:24.898Z,11.20
2022-12-14T04:44:55.325Z,13.03
2022-12-14T04:47:29.558Z,17.47
2022-12-14T04:50:15.949Z,13.70
2022-12-14T04:52:55.242Z,14.17
2022-12-14T04:55:46.230Z,16.47
2022-12-14T04:58:24.470Z,12.90
2022-12-14T05:01:22.881Z,13.07
2022-12-14T05:03:59.980Z,13.43
2022-12-14T05:06:35.400Z,13.80
2022-12-14T05:09:18.235Z,10.10
2022-12-14T05:11:54.082Z,13.23
2022-12-14T05:14:28.373Z,12.73
2022-12-14T05:16:55.501Z,14.60
2022-12-14T05:19:26.359Z,12.67
2022-12-14T05:21:54.384Z,17.37
2022-12-14T05:24:20.815Z,17.23
2022-12-14T05:26:47.208Z,11.40
2022-12-14T05:29:14.988Z,14.40
2022-12-14T05:31:41.427Z,13.10
2022-12-14T05:34:07.971Z,15.20
2022-12-14T05:36:35.449Z,15.07
2022-12-14T05:39:01.873Z,16.13
2022-12-14T05:41:28.300Z,14.10
2022-12-14T05:43:54.809Z,11.20
2022-12-14T05:46:21.584Z,10.73
2022-12-14T05:48:49.548Z,13.37
2022-12-14T05:51:16.756Z,12.43
2022-12-14T05:53:43.500Z,12.07
2022-12-14T05:56:11.050Z,11.63
2022-12-14T05:58:38.456Z,10.77
2022-12-14T06:01:10.623Z,10.63
2022-12-14T06:03:40.420Z,13.20
2022-12-14T06:06:09.635Z,12.77
2022-12-14T06:08:38.616Z,11.47
2022-12-14T06:11:08.585Z,10.63
2022-12-14T06:13:36.626Z,12.47
2022-12-14T06:16:14.535Z,13.83
2022-12-14T06:18:45.810Z,12.17
2022-12-14T06:21:14.232Z,10.67
2022-12-14T06:23:40.686Z,14.83
2022-12-14T06:26:07.192Z,10.97
2022-12-14T06:28:34.150Z,10.87
2022-12-14T06:31:00.909Z,15.17
2022-12-14T06:33:28.366Z,13.87
2022-12-14T06:35:55.430Z,10.73
2022-12-14T06:38:22.049Z,12.73
2022-12-14T06:40:48.588Z,14.20
2022-12-14T06:43:14.951Z,11.43
2022-12-14T06:45:41.476Z,13.07
2022-12-14T06:48:08.026Z,11.27
2022-12-14T06:50:34.853Z,11.00
2022-12-14T06:53:01.631Z,15.17
2022-12-14T06:55:29.041Z,13.70
2022-12-14T06:57:55.835Z,15.70
2022-12-14T07:00:23.796Z,13.23
2022-12-14T07:02:50.789Z,13.50
2022-12-14T07:05:17.319Z,11.60
2022-12-14T07:07:43.820Z,12.67
2022-12-14T07:10:11.490Z,13.73
2022-12-14T07:12:37.938Z,11.23
2022-12-14T07:15:05.891Z,10.87
2022-12-14T07:17:35.208Z,14.57
2022-12-14T07:20:01.824Z,11.30
2022-12-14T07:22:28.182Z,9.50
2022-12-14T07:24:54.613Z,12.03
2022-12-14T07:27:21.509Z,9.57
2022-12-14T07:29:47.970Z,12.50
2022-12-14T07:32:14.356Z,15.67
2022-12-14T07:34:40.866Z,12.20
2022-12-14T07:37:07.315Z,10.97
2022-12-14T07:39:33.690Z,17.80
2022-12-14T07:42:00.105Z,9.30
2022-12-14T07:44:26.633Z,11.07
2022-12-14T07:46:53.568Z,11.03
2022-12-14T07:49:20.171Z,11.13
2022-12-14T07:51:46.748Z,12.47
2022-12-14T07:54:13.618Z,14.33
2022-12-14T07:56:42.952Z,11.60
2022-12-14T07:59:14.903Z,9.87
2022-12-14T08:01:43.606Z,10.33
2022-12-14T08:04:13.152Z,14.97
2022-12-14T08:06:40.266Z,14.23
2022-12-14T08:09:08.229Z,9.37
2022-12-14T08:11:35.052Z,13.13
2022-12-14T08:14:04.625Z,15.73
2022-12-14T08:16:31.597Z,10.67
2022-12-14T08:18:58.919Z,14.53
2022-12-14T08:21:26.098Z,17.17
2022-12-14T08:23:54.500Z,21.10
2022-12-14T08:26:21.705Z,14.80
2022-12-14T08:28:49.225Z,16.43
2022-12-14T08:31:21.404Z,16.53
2022-12-14T08:33:48.650Z,17.67
2022-12-14T08:36:18.190Z,17.40
2022-12-14T08:38:46.426Z,16.13
2022-12-14T08:41:15.687Z,19.63
2022-12-14T08:43:42.514Z,17.43
2022-12-14T08:46:10.095Z,18.73
2022-12-14T08:48:37.033Z,16.90
2022-12-14T08:51:05.851Z,17.40
2022-12-14T08:53:32.937Z,12.60
2022-12-14T08:56:06.594Z,16.60
2022-12-14T08:58:33.421Z,16.07
2022-12-14T09:01:05.363Z,19.43
2022-12-14T09:03:32.976Z,15.87
2022-12-14T09:06:05.698Z,20.20
2022-12-14T09:08:32.840Z,18.17
2022-12-14T09:11:00.351Z,19.23
2022-12-14T09:13:27.872Z,15.67
2022-12-14T09:16:21.835Z,15.83
2022-12-14T09:18:48.994Z,18.43
2022-12-14T09:21:15.613Z,18.87
2022-12-14T09:23:42.594Z,20.30
2022-12-14T09:26:18.471Z,21.10
2022-12-14T09:28:47.761Z,20.80
2022-12-14T09:31:16.763Z,17.27
2022-12-14T09:33:43.439Z,19.73
2022-12-14T09:36:18.801Z,14.43
2022-12-14T09:38:51.072Z,16.17
2022-12-14T09:41:34.559Z,18.37
2022-12-14T09:44:35.604Z,22.80
2022-12-14T09:47:31.177Z,16.77
2022-12-14T09:50:02.157Z,16.97
2022-12-14T09:52:46.193Z,18.53
2022-12-14T09:55:26.300Z,23.07
2022-12-14T09:58:11.082Z,19.70
2022-12-14T10:00:48.199Z,18.73
2022-12-14T10:03:32.093Z,18.63
2022-12-14T10:06:19.337Z,17.40
2022-12-14T10:08:54.899Z,14.63
2022-12-14T10:11:39.486Z,15.83
2022-12-14T10:14:36.334Z,18.50
2022-12-14T10:17:31.024Z,14.57
2022-12-14T10:20:04.699Z,14.73
2022-12-14T10:22:42.471Z,14.27
2022-12-14T10:25:22.706Z,16.03
2022-12-14T10:28:10.527Z,16.13
2022-12-14T10:30:37.939Z,22.00
2022-12-14T10:33:31.563Z,17.70
2022-12-14T10:36:26.241Z,15.83
2022-12-14T10:39:02.104Z,16.40
2022-12-14T10:42:05.098Z,20.90
2022-12-14T10:45:31.142Z,19.83
2022-12-14T10:47:52.139Z,16.53
2022-12-14T10:50:32.632Z,13.53
2022-12-14T10:53:03.095Z,12.67
2022-12-14T10:55:34.687Z,12.87
2022-12-14T10:58:01.419Z,11.80
2022-12-14T11:00:28.066Z,11.47
2022-12-14T11:02:57.254Z,13.53
2022-12-14T11:05:41.100Z,14.03
2022-12-14T11:08:08.801Z,13.37
2022-12-14T11:10:39.404Z,14.50
2022-12-14T11:13:19.034Z,17.07
2022-12-14T11:15:52.925Z,16.23
2022-12-14T11:18:22.035Z,15.83
2022-12-14T11:20:56.564Z,14.83
2022-12-14T11:23:30.482Z,20.77
2022-12-14T11:26:02.326Z,15.03
2022-12-14T11:28:37.531Z,14.03
2022-12-14T11:31:23.018Z,12.37
2022-12-14T11:33:52.495Z,11.97
2022-12-14T11:36:40.231Z,15.47
2022-12-14T11:39:20.834Z,12.80
2022-12-14T11:42:01.292Z,11.60
2022-12-14T11:44:34.580Z,10.30
2022-12-14T11:47:05.146Z,10.73
2022-12-14T11:49:54.783Z,7.63
2022-12-14T11:52:41.923Z,13.60
2022-12-14T11:55:14.858Z,10.13
2022-12-14T11:57:47.170Z,9.67
2022-12-14T12:00:19.655Z,10.17
2022-12-14T12:02:53.291Z,7.00
2022-12-14T12:05:23.067Z,10.63
2022-12-14T12:07:49.532Z,11.00
2022-12-14T12:10:22.965Z,9.43
2022-12-14T12:13:04.921Z,7.50
2022-12-14T12:15:43.129Z,7.50
2022-12-14T12:18:22.356Z,7.00
2022-12-14T12:21:20.261Z,6.13
2022-12-14T12:24:02.534Z,6.27
2022-12-14T12:26:35.281Z,9.67
2022-12-14T12:29:11.769Z,8.63
2022-12-14T12:31:43.581Z,7.63
2022-12-14T12:34:16.161Z,6.03
2022-12-14T12:37:17.147Z,6.93
2022-12-14T12:39:35.137Z,9.00
2022-12-14T12:42:09.515Z,6.67
2022-12-14T12:44:54.618Z,8.20
2022-12-14T12:47:44.444Z,8.70
2022-12-14T12:50:36.183Z,6.63
2022-12-14T12:53:17.204Z,6.87
2022-12-14T12:55:53.829Z,8.80
2022-12-14T12:58:27.885Z,8.10
2022-12-14T13:00:59.550Z,9.67
2022-12-14T13:03:43.398Z,7.43
2022-12-14T13:06:30.552Z,8.63
2022-12-14T13:09:01.046Z,6.90
2022-12-14T13:11:38.249Z,6.10
2022-12-14T13:14:30.493Z,6.50
2022-12-14T13:16:59.303Z,6.70
2022-12-14T13:19:50.459Z,6.23
2022-12-14T13:22:24.801Z,6.40
2022-12-14T13:24:59.039Z,8.03
2022-12-14T13:28:01.358Z,6.53
2022-12-14T13:30:39.587Z,6.00
2022-12-14T13:33:30.502Z,6.23
2022-12-14T13:36:11.972Z,6.47
2022-12-14T13:39:02.353Z,9.67
2022-12-14T13:41:40.616Z,7.30
2022-12-14T13:44:36.107Z,5.57
2022-12-14T13:47:15.606Z,5.53
2022-12-14T13:50:18.646Z,7.97
2022-12-14T13:52:43.658Z,6.93
2022-12-14T13:55:35.439Z,5.37
2022-12-14T13:58:20.211Z,5.70
2022-12-14T14:01:16.037Z,7.33
2022-12-14T14:03:45.710Z,7.70
2022-12-14T14:06:12.205Z,13.00
2022-12-14T14:08:42.294Z,10.87
2022-12-14T14:11:40.016Z,9.30
2022-12-14T14:14:21.429Z,6.57
2022-12-14T14:17:00.308Z,7.20
2022-12-14T14:19:28.560Z,9.07
2022-12-14T14:22:24.494Z,11.40
2022-12-14T14:25:25.662Z,10.27
2022-12-14T14:27:54.268Z,7.43
2022-12-14T14:30:38.343Z,8.27
2022-12-14T14:33:45.420Z,8.87
2022-12-14T14:36:33.231Z,9.67
2022-12-14T14:39:55.666Z,9.00
2022-12-14T14:42:22.121Z,6.70
2022-12-14T14:44:57.491Z,9.90
2022-12-14T14:47:32.435Z,9.33
2022-12-14T14:50:15.553Z,9.53
2022-12-14T14:52:42.004Z,8.60
2022-12-14T14:55:54.979Z,12.90
2022-12-14T14:58:26.290Z,10.80
2022-12-14T15:01:09.269Z,14.27
2022-12-14T15:03:47.927Z,12.13
2022-12-14T15:06:17.790Z,9.10
2022-12-14T15:08:49.297Z,9.83
2022-12-14T15:11:22.781Z,11.17
2022-12-14T15:13:57.639Z,8.87
2022-12-14T15:16:41.898Z,9.37
2022-12-14T15:19:26.338Z,8.33
2022-12-14T15:22:07.790Z,9.70
2022-12-14T15:24:42.040Z,10.13
2022-12-14T15:27:23.677Z,9.23
2022-12-14T15:29:51.106Z,9.50
2022-12-14T15:32:21.606Z,12.47
2022-12-14T15:34:54.756Z,8.87
2022-12-14T15:37:28.976Z,8.30
2022-12-14T15:40:15.187Z,8.97
2022-12-14T15:42:57.395Z,10.67
2022-12-14T15:45:30.494Z,10.93
2022-12-14T15:48:15.382Z,11.23
2022-12-14T15:50:46.055Z,14.73
2022-12-14T15:53:18.316Z,10.97
2022-12-14T15:55:53.529Z,12.43
2022-12-14T15:58:39.202Z,10.67
2022-12-14T16:01:18.730Z,11.93
2022-12-14T16:03:49.234Z,16.13
2022-12-14T16:06:17.302Z,13.37
2022-12-14T16:09:25.758Z,7.57
2022-12-14T16:11:56.054Z,13.57
2022-12-14T16:14:35.895Z,13.30
2022-12-14T16:17:03.502Z,12.17
2022-12-14T16:19:57.473Z,13.90
2022-12-14T16:22:26.669Z,13.33
2022-12-14T16:25:19.025Z,12.93
2022-12-14T16:27:50.280Z,9.80
2022-12-14T16:30:32.620Z,13.23
2022-12-14T16:33:16.712Z,8.17
2022-12-14T16:35:44.731Z,12.13
2022-12-14T16:38:16.076Z,12.47
2022-12-14T16:40:54.512Z,11.70
2022-12-14T16:43:34.045Z,13.87
2022-12-14T16:46:03.395Z,13.23
2022-12-14T16:48:35.889Z,14.17
2022-12-14T16:51:58.313Z,16.57
2022-12-14T16:54:33.358Z,12.30
2022-12-14T16:57:06.063Z,12.17
2022-12-14T16:59:45.061Z,15.00
2022-12-14T17:02:37.708Z,13.70
2022-12-14T17:05:24.112Z,17.57
2022-12-14T17:07:50.570Z,13.90
2022-12-14T17:10:19.997Z,24.47
2022-12-14T17:12:49.074Z,20.43
2022-12-14T17:15:17.739Z,15.97
2022-12-14T17:17:46.077Z,22.90
2022-12-14T17:20:24.325Z,17.03
2022-12-14T17:22:51.155Z,19.23
2022-12-14T17:25:19.496Z,19.47
2022-12-14T17:27:46.233Z,18.17
2022-12-14T17:30:17.822Z,16.43
2022-12-14T17:32:45.195Z,14.87
2022-12-14T17:35:37.786Z,13.13
2022-12-14T17:38:12.652Z,17.13
2022-12-14T17:40:39.371Z,12.33
2022-12-14T17:43:11.413Z,19.60
2022-12-14T17:45:44.401Z,10.83
2022-12-14T17:48:14.957Z,12.53
2022-12-14T17:50:44.111Z,10.23
2022-12-14T17:53:14.867Z,13.93
2022-12-14T17:55:41.448Z,14.20
2022-12-14T17:58:10.110Z,12.00
2022-12-14T18:00:55.685Z,14.40
2022-12-14T18:03:22.216Z,13.23
2022-12-14T18:05:49.706Z,18.27
2022-12-14T18:08:17.161Z,18.47
2022-12-14T18:10:44.043Z,22.63
2022-12-14T18:13:12.170Z,15.87
2022-12-14T18:15:49.529Z,15.33
2022-12-14T18:18:25.056Z,16.40
2022-12-14T18:20:55.642Z,17.37
2022-12-14T18:23:23.300Z,15.77
2022-12-14T18:25:52.686Z,16.40
2022-12-14T18:28:19.889Z,18.00
2022-12-14T18:30:50.855Z,14.87
2022-12-14T18:33:20.353Z,15.77
2022-12-14T18:35:48.139Z,16.43
2022-12-14T18:38:14.644Z,17.10
2022-12-14T18:40:49.907Z,15.03
2022-12-14T18:43:23.443Z,17.70
2022-12-14T18:45:52.714Z,13.57
2022-12-14T18:48:19.730Z,14.53
2022-12-14T18:50:46.157Z,16.17
2022-12-14T18:53:18.349Z,15.17
2022-12-14T18:55:45.022Z,15.83
2022-12-14T18:58:26.285Z,11.60
2022-12-14T19:00:55.306Z,15.20
2022-12-14T19:03:23.194Z,14.57
2022-12-14T19:05:50.223Z,13.60
2022-12-14T19:08:16.753Z,11.40
2022-12-14T19:10:46.568Z,15.13
2022-12-14T19:13:23.267Z,12.03
2022-12-14T19:15:51.817Z,10.33
2022-12-14T19:18:18.887Z,12.83
2022-12-14T19:20:45.338Z,13.57
2022-12-14T19:23:17.693Z,9.17
2022-12-14T19:25:44.347Z,11.70
2022-12-14T19:28:30.989Z,10.73
2022-12-14T19:30:58.448Z,9.37
2022-12-14T19:33:25.535Z,10.03
2022-12-14T19:35:52.401Z,16.30
2022-12-14T19:38:19.030Z,12.27
2022-12-14T19:40:57.599Z,11.57
2022-12-14T19:43:24.118Z,10.30
2022-12-14T19:45:50.476Z,10.00
2022-12-14T19:48:17.099Z,10.90
2022-12-14T19:50:43.483Z,10.90
2022-12-14T19:53:28.173Z,9.20
2022-12-14T19:55:54.770Z,8.57
2022-12-14T19:58:25.379Z,14.80
2022-12-14T20:00:52.031Z,12.37
2022-12-14T20:03:18.769Z,10.40
2022-12-14T20:05:59.063Z,7.90
2022-12-14T20:08:27.880Z,12.00
2022-12-14T20:10:54.494Z,11.03
2022-12-14T20:13:23.422Z,11.27
2022-12-14T20:15:50.591Z,10.57
2022-12-14T20:18:20.013Z,12.97
2022-12-14T20:20:49.846Z,14.13
2022-12-14T20:23:17.977Z,10.57
2022-12-14T20:25:44.724Z,11.53
2022-12-14T20:28:11.567Z,10.00
2022-12-14T20:30:45.787Z,9.97
2022-12-14T20:33:12.535Z,8.77
2022-12-14T20:35:39.428Z,13.37
2022-12-14T20:38:05.858Z,9.40
2022-12-14T20:40:37.982Z,9.57
2022-12-14T20:43:05.086Z,8.03
2022-12-14T20:45:31.461Z,8.90
2022-12-14T20:47:57.834Z,12.07
2022-12-14T20:50:24.338Z,9.07
2022-12-14T20:52:50.738Z,8.40
2022-12-14T20:55:17.306Z,11.77
2022-12-14T20:57:43.688Z,10.47
2022-12-14T21:00:10.492Z,10.13
2022-12-14T21:02:36.983Z,8.90
2022-12-14T21:05:03.788Z,9.30
2022-12-14T21:07:31.570Z,7.27
2022-12-14T21:09:58.092Z,11.97
2022-12-14T21:12:25.772Z,7.97
2022-12-14T21:14:54.667Z,8.00
2022-12-14T21:17:23.634Z,11.13
2022-12-14T21:19:50.951Z,11.27
2022-12-14T21:22:20.623Z,11.97
2022-12-14T21:25:05.240Z,12.57
2022-12-14T21:27:33.752Z,12.63
2022-12-14T21:30:00.857Z,17.07
2022-12-14T21:32:27.742Z,10.20
2022-12-14T21:34:54.145Z,11.70
2022-12-14T21:37:20.902Z,11.30
2022-12-14T21:39:53.963Z,9.77
2022-12-14T21:42:23.310Z,6.57
2022-12-14T21:44:51.571Z,13.33
2022-12-14T21:47:23.498Z,10.40
2022-12-14T21:49:49.880Z,9.53
2022-12-14T21:52:19.781Z,8.00
2022-12-14T21:54:46.259Z,8.77
2022-12-14T21:57:36.314Z,9.43
2022-12-14T22:00:04.982Z,8.60
2022-12-14T22:02:31.603Z,10.13
2022-12-14T22:04:58.254Z,10.07
2022-12-14T22:07:29.118Z,10.37
2022-12-14T22:09:55.496Z,8.60
2022-12-14T22:12:22.069Z,9.40
2022-12-14T22:14:49.938Z,10.00
2022-12-14T22:17:16.356Z,8.77
2022-12-14T22:19:42.781Z,8.97
2022-12-14T22:22:16.636Z,10.37
2022-12-14T22:24:43.685Z,11.50
2022-12-14T22:27:11.941Z,13.70
2022-12-14T22:29:38.432Z,12.30
2022-12-14T22:32:05.276Z,12.53
2022-12-14T22:34:31.820Z,11.33
2022-12-14T22:36:58.174Z,9.67
2022-12-14T22:39:24.721Z,13.77
2022-12-14T22:41:53.221Z,10.70
2022-12-14T22:44:19.700Z,8.07
2022-12-14T22:46:46.193Z,6.03
2022-12-14T22:49:17.656Z,9.87
2022-12-14T22:51:45.586Z,10.93
2022-12-14T22:54:24.948Z,11.63
2022-12-14T22:57:04.597Z,8.00
2022-12-14T22:59:42.508Z,11.83
2022-12-14T23:02:09.289Z,7.83
2022-12-14T23:04:37.404Z,10.90
2022-12-14T23:07:04.157Z,10.17
2022-12-14T23:09:48.953Z,8.67
2022-12-14T23:12:34.351Z,9.43
2022-12-14T23:15:19.058Z,7.70
2022-12-14T23:18:03.961Z,7.13
2022-12-14T23:20:48.896Z,8.70
2022-12-14T23:23:34.297Z,8.53
2022-12-14T23:26:20.830Z,8.17
2022-12-14T23:29:06.055Z,7.77
2022-12-14T23:31:51.540Z,7.90
2022-12-14T23:34:36.285Z,8.20
2022-12-14T23:37:21.093Z,8.50
2022-12-14T23:40:06.601Z,10.07
2022-12-14T23:42:51.792Z,8.23
2022-12-14T23:45:36.715Z,8.47
2022-12-14T23:48:21.937Z,7.50
2022-12-14T23:51:06.847Z,8.00
2022-12-14T23:53:51.860Z,10.43
2022-12-14T23:56:36.778Z,11.67
2022-12-14T23:59:26.244Z,7.40
